PST,Max TemperatureF,Mean TemperatureF,Min TemperatureF,Max Dew PointF,MeanDew PointF,Min DewpointF,Max Humidity, Mean Humidity, Min Humidity, Max Sea Level PressureIn, Mean Sea Level PressureIn, Min Sea Level PressureIn, Max VisibilityMiles, Mean VisibilityMiles, Min VisibilityMiles, Max Wind SpeedMPH, Mean Wind SpeedMPH, Max Gust SpeedMPH,PrecipitationIn, CloudCover, Events, WindDirDegrees
2011-12-1,36,31,25,13,6,0,60,42,24,30.29,30.22,30.18,10,10,10,31,14,46,0.00,0,,24
2011-12-2,48,37,25,7,0,-11,37,23,8,30.17,30.08,29.98,10,10,8,22,7,30,0.00,0,,20
2011-12-3,37,27,17,6,4,0,61,42,22,30.40,30.25,30.06,10,10,10,24,5,41,0.00,0,,333
2011-12-4,46,30,13,18,11,4,67,48,28,30.38,30.28,30.17,10,10,7,15,3,22,0.00,0,,199
2011-12-5,40,28,16,10,6,1,57,39,21,30.40,30.29,30.17,10,10,9,17,3,31,0.00,0,,113
2011-12-6,47,29,11,18,11,3,67,47,26,30.48,30.40,30.32,10,10,9,8,1,13,0.00,0,,191
2011-12-7,52,35,17,22,17,12,80,54,28,30.40,30.27,30.16,10,9,7,9,2,13,0.00,0,,191
2011-12-8,52,36,19,19,15,11,74,47,19,30.35,30.23,30.13,10,10,8,12,1,20,0.00,0,,195
2011-12-9,49,31,12,18,12,6,80,52,23,30.45,30.34,30.26,10,10,7,8,1,13,0.00,0,,165
2011-12-10,49,29,9,22,12,3,80,56,31,30.37,30.21,30.02,10,9,6,7,3,8,0.00,0,,174
2011-12-11,47,32,16,15,10,5,67,42,17,30.00,29.88,29.72,10,10,8,10,2,14,0.00,1,,193
2011-12-12,38,27,16,14,10,8,74,52,29,29.84,29.74,29.68,10,10,7,28,4,29,0.00,2,,102
2011-12-13,42,26,10,20,11,4,76,52,28,30.11,29.98,29.87,10,9,7,8,1,10,0.00,1,,185
2011-12-14,46,28,10,20,13,4,80,53,26,30.30,30.19,30.06,10,10,9,18,3,22,0.00,0,,191
2011-12-15,36,31,26,23,19,10,75,57,38,30.29,30.16,30.08,10,8,2,24,6,32,T,7,Snow,133
2011-12-16,45,36,26,19,16,10,68,47,25,30.36,30.31,30.27,10,10,10,22,8,32,0.00,2,,61
2011-12-17,47,32,16,19,13,8,80,53,26,30.41,30.30,30.20,10,10,8,9,1,15,0.00,0,,164
2011-12-18,53,32,11,23,11,4,67,44,20,30.27,30.15,30.03,10,9,7,10,1,14,0.00,1,,187
2011-12-19,40,32,24,22,19,14,63,54,44,30.22,30.14,30.01,10,10,10,16,5,26,0.00,4,,63
2011-12-20,49,34,19,13,9,2,67,41,14,30.27,30.17,30.06,10,10,10,13,3,18,0.00,0,,157
2011-12-21,49,32,14,21,8,-4,80,46,11,30.29,30.18,30.06,10,10,7,18,4,29,0.00,0,,117
2011-12-22,40,25,10,1,-10,-41,52,27,2,30.66,30.43,30.22,10,10,9,23,6,35,0.00,0,,57
2011-12-23,45,25,5,9,0,-6,66,43,19,30.78,30.66,30.54,10,10,7,7,2,10,0.00,0,,189
2011-12-24,48,27,5,3,1,-2,69,41,13,30.76,30.63,30.48,10,9,7,7,2,10,0.00,0,,195
2011-12-25,55,32,9,20,3,-8,66,37,8,30.60,30.46,30.30,10,10,7,18,4,23,0.00,0,,193
2011-12-26,56,36,16,11,5,2,59,36,12,30.37,30.30,30.22,10,10,10,20,4,25,0.00,0,,199
2011-12-27,56,38,19,20,10,-2,63,41,18,30.45,30.35,30.25,10,10,10,12,1,13,0.00,0,,193
2011-12-28,59,44,29,41,30,9,82,59,35,30.44,30.34,30.23,10,10,10,16,4,20,0.00,4,,200
2011-12-29,56,43,29,38,29,18,89,57,24,30.32,30.20,30.11,10,10,8,18,7,23,0.00,1,,199
2011-12-30,52,39,26,32,15,-8,75,42,9,30.17,30.10,30.04,10,10,10,29,10,40,T,2,,195
2011-12-31,54,37,19,25,15,10,67,46,24,30.38,30.27,30.17,10,10,9,8,1,12,0.00,0,,0